Lewiston, ID (83501)

5:07 AM PDT on August 20, 2014 (GMT -0700)
Normal Hill Weather Station | Change Station
CLOSE
Current Station
Personal Weather Station
Location: Lewiston, ID
Elevation: 805 ft
Nearby Weather Stations

Elev 805 ft 46.42 °N, 117.03 °W | Updated 4 seconds ago

Mostly Cloudy
Mostly Cloudy
66.7 °F
Feels Like 66.7 °F
N
0.0
Wind Variable Wind from ESE
Gusts 2.7 mph

Today
High -- | Low -- °F
--% Chance of Precip.
Yesterday
High -- | Low -- °F
Precip. -- in
5:53 AM 7:48 PM
Waning Crescent, 22% visible
Pressure 29.71 in
Visibility 10.0 miles
Clouds Mostly Cloudy 11000 ft
Dew Point 33 °F
Humidity 28%
Rainfall 0.00 in
Snow Depth Not available.
UV 0 out of 12
Pollen 7.40 out of 12
Air Quality Not available.
Flu Activity Not available.
METAR KLWS 201156Z AUTO 00000KT 10SM BKN110 21/14 A2975 RMK AO2 LTG DSNT E RAB29E52 SLP061 P0000 60000 T02110144 10250 20211 52011

More Conditions Fewer Conditions

Pressure 29.71 in
Visibility 10.0 miles
Clouds Mostly Cloudy 11000 ft
Dew Point 33 °F
Humidity 28%
Rainfall 0.00 in
Snow Depth Not available.
UV 0 out of 12
Pollen 7.40 out of 12
Air Quality Not available.
Flu Activity Not available.
METAR KLWS 201156Z AUTO 00000KT 10SM BKN110 21/14 A2975 RMK AO2 LTG DSNT E RAB29E52 SLP061 P0000 60000 T02110144 10250 20211 52011

More Conditions Fewer Conditions

10-Day Weather Forecast

Almanac

Astronomy

Aug. 20, 2014 Rise Set
Actual Time 5:53 AM PDT 7:48 PM PDT
Civil Twilight 5:20 AM PDT 8:20 PM PDT
Nautical Twilight 4:40 AM PDT 9:00 PM PDT
Astronomical Twilight 3:57 AM PDT 9:43 PM PDT
Moon 1:30 AM PDT 4:43 PM PDT
Length of Visible Light 15h 00m
Length of Day
13h 55m
Tomorrow will be 3m 2s shorter.
Waning Crescent, 22% of the Moon is Illuminated
Today
Waning Crescent
Aug 25
New
Sep 2
First Quarter
Sep 8
Full
Sep 15
Last Quarter

Today's Extremes

State Highs State Lows

Community

WunderPhotos

Upload Photos

1,745,613 photos uploaded!

WunderBlogs® & News

By Dr. Jeff Masters
Director of Meteorology, Weather Underground
By Kari Strenfel
Meteorologist, Weather Underground
By Christopher C. Burt
Weather Historian, Weather Underground
August 20, 2014
August 20, 2014
August 20, 2014

Nearby

Snow Depth

Station Depth Elevation
Moscow Mountain 0 in 4700 ft
Sherwin 0 in 3200 ft
Mica Creek 0 in 4750 ft
Lost Lake 0 in 6110 ft
Crater Meadows 0 in 5960 ft

Earthquake Activity

City Distance Mag. Time & Date
No recent earthquake activity has been reported nearby.
Minimum magnitude displayed is 2.5.

Coastal Water Temperatures

Place Temperature
No Stations Reporting

Nearby Weather Stations